Time;durP1;ratioP1;P1;durP2;ratioP2;P2;SDS_P1;SDS_P2;PMS_P1;PMS_P2;Temp;Humidity;BMP_temperature;BMP_pressure;BME280_temperature;BME280_humidity;BME280_pressure;Samples;Min_cycle;Max_cycle;Signal;HPM_P1;HPM_P2
2021/07/07 00:01:14;;;;;;;6.80;5.93;;;23.90;80.60;;;;;;5050265;28;20017;-65
2021/07/07 00:03:39;;;;;;;8.77;5.95;;;23.80;80.80;;;;;;5050573;28;20513;-65
2021/07/07 00:06:05;;;;;;;7.05;6.20;;;23.80;81.00;;;;;;5053201;28;20021;-65
2021/07/07 00:08:32;;;;;;;5.63;5.10;;;23.80;81.20;;;;;;5052151;28;20048;-65
2021/07/07 00:10:58;;;;;;;8.13;6.13;;;23.80;80.90;;;;;;5053033;28;20485;-65
2021/07/07 00:13:24;;;;;;;6.30;5.70;;;23.70;81.10;;;;;;5053321;28;20021;-65
2021/07/07 00:15:49;;;;;;;6.00;5.40;;;23.70;81.10;;;;;;5053104;28;20040;-65
2021/07/07 00:18:15;;;;;;;6.40;5.78;;;23.70;81.00;;;;;;5052744;28;20032;-65
2021/07/07 00:20:45;;;;;;;6.30;5.40;;;23.70;81.10;;;;;;5053254;28;20123;-65
2021/07/07 00:23:12;;;;;;;5.45;4.95;;;23.70;81.00;;;;;;5052757;28;20019;-65
2021/07/07 00:25:38;;;;;;;6.68;5.07;;;23.70;80.90;;;;;;5052357;28;20049;-65
2021/07/07 00:28:04;;;;;;;5.75;5.15;;;23.60;80.60;;;;;;5052810;28;20095;-65
2021/07/07 00:30:30;;;;;;;5.88;5.28;;;23.60;80.60;;;;;;5051598;28;20021;-65
2021/07/07 00:32:56;;;;;;;6.13;5.03;;;23.60;80.50;;;;;;5052933;28;20029;-65
2021/07/07 00:35:23;;;;;;;5.22;4.68;;;23.60;80.40;;;;;;5048594;28;20017;-65
2021/07/07 00:37:49;;;;;;;4.82;4.32;;;23.50;80.30;;;;;;5053208;28;20014;-65
2021/07/07 00:40:15;;;;;;;4.78;4.22;;;23.50;79.90;;;;;;5051279;28;20381;-65
2021/07/07 00:42:41;;;;;;;4.45;4.05;;;23.50;79.70;;;;;;5051932;28;20028;-65
2021/07/07 00:45:07;;;;;;;5.53;4.05;;;23.40;79.00;;;;;;5052336;28;20102;-65
2021/07/07 00:47:33;;;;;;;5.75;4.18;;;23.40;78.40;;;;;;5046234;28;20032;-65
2021/07/07 00:49:58;;;;;;;6.10;4.00;;;23.40;77.70;;;;;;5052645;28;20021;-65
2021/07/07 00:52:24;;;;;;;4.72;4.10;;;23.30;78.10;;;;;;5052442;28;20029;-65
2021/07/07 00:54:50;;;;;;;4.22;3.55;;;23.30;78.00;;;;;;5049497;28;20033;-65
2021/07/07 00:57:17;;;;;;;4.35;3.90;;;23.30;78.10;;;;;;5051940;28;20043;-65
2021/07/07 00:59:49;;;;;;;3.95;3.55;;;23.30;77.90;;;;;;5049804;28;20025;-65
2021/07/07 01:02:17;;;;;;;4.80;4.05;;;23.30;77.70;;;;;;5050518;28;20074;-65
2021/07/07 01:04:43;;;;;;;4.50;3.85;;;23.30;77.80;;;;;;5051817;28;20033;-65
2021/07/07 01:07:09;;;;;;;4.13;3.67;;;23.30;77.60;;;;;;5051440;28;20036;-65
2021/07/07 01:09:36;;;;;;;5.20;3.80;;;23.30;77.30;;;;;;5051695;28;20100;-65
2021/07/07 01:12:02;;;;;;;4.28;3.85;;;23.20;77.10;;;;;;5052662;28;20381;-65
2021/07/07 01:14:27;;;;;;;4.38;3.60;;;23.20;77.10;;;;;;5052037;28;20036;-65
2021/07/07 01:16:53;;;;;;;3.80;3.50;;;23.20;77.10;;;;;;5048151;28;20346;-65
2021/07/07 01:19:19;;;;;;;4.30;3.90;;;23.20;76.90;;;;;;5051846;28;20036;-65
2021/07/07 01:21:49;;;;;;;4.30;3.70;;;23.20;76.90;;;;;;5052012;28;20020;-65
2021/07/07 01:24:16;;;;;;;4.57;4.07;;;23.20;76.40;;;;;;5052095;28;20017;-65
2021/07/07 01:26:43;;;;;;;3.80;3.40;;;23.20;76.60;;;;;;5052182;28;20037;-65
2021/07/07 01:29:09;;;;;;;3.58;3.28;;;23.20;76.40;;;;;;5052273;28;20048;-65
2021/07/07 01:31:37;;;;;;;3.63;3.30;;;23.20;76.20;;;;;;5051965;28;20560;-65
2021/07/07 01:34:04;;;;;;;6.93;3.45;;;23.20;75.70;;;;;;5051640;28;20025;-65
2021/07/07 01:36:31;;;;;;;4.78;3.50;;;23.20;76.20;;;;;;5049319;28;20086;-65
2021/07/07 01:38:57;;;;;;;4.63;3.47;;;23.20;76.00;;;;;;5051153;28;20025;-65
2021/07/07 01:41:25;;;;;;;4.65;3.72;;;23.20;76.10;;;;;;5051338;28;20017;-65
2021/07/07 01:43:52;;;;;;;5.10;4.00;;;23.10;76.90;;;;;;5049452;28;20033;-65
2021/07/07 01:46:18;;;;;;;4.43;3.90;;;23.20;76.40;;;;;;5049705;28;20053;-65
2021/07/07 01:48:43;;;;;;;4.85;4.18;;;23.10;76.40;;;;;;5051491;28;20025;-65
2021/07/07 01:51:09;;;;;;;5.13;4.38;;;23.10;76.60;;;;;;5049785;28;20410;-65
2021/07/07 01:53:35;;;;;;;6.13;5.05;;;23.10;77.20;;;;;;5051754;28;20087;-65
2021/07/07 01:56:01;;;;;;;7.45;5.07;;;23.10;77.60;;;;;;5051624;28;20029;-65
2021/07/07 01:58:26;;;;;;;6.68;4.68;;;23.10;78.00;;;;;;5046431;28;20366;-65
2021/07/07 02:00:54;;;;;;;7.13;5.15;;;23.00;78.20;;;;;;5048455;28;20056;-65
2021/07/07 02:03:19;;;;;;;7.05;5.07;;;23.00;78.10;;;;;;5050388;28;20017;-65
2021/07/07 02:05:45;;;;;;;5.45;4.47;;;23.00;78.20;;;;;;5051674;28;20109;-65
2021/07/07 02:08:12;;;;;;;4.88;4.30;;;22.90;78.30;;;;;;5050775;28;20528;-65
2021/07/07 02:10:39;;;;;;;6.13;4.95;;;22.90;77.80;;;;;;5051535;28;20088;-65
2021/07/07 02:13:07;;;;;;;5.30;4.53;;;22.90;77.80;;;;;;5051265;28;20036;-65
2021/07/07 02:15:35;;;;;;;5.57;4.82;;;22.90;77.80;;;;;;5045865;28;20032;-65
2021/07/07 02:18:02;;;;;;;4.85;4.03;;;22.80;77.90;;;;;;5051471;28;20464;-65
2021/07/07 02:20:29;;;;;;;5.72;4.75;;;22.80;77.70;;;;;;5050276;28;20029;-65
2021/07/07 02:22:55;;;;;;;5.57;4.32;;;22.80;77.70;;;;;;5053104;28;20044;-65
2021/07/07 02:25:25;;;;;;;5.63;4.38;;;22.90;77.60;;;;;;5054359;28;20068;-65
2021/07/07 02:27:51;;;;;;;6.00;4.53;;;22.80;77.50;;;;;;5054674;28;20023;-65
2021/07/07 02:30:20;;;;;;;4.88;4.18;;;22.80;77.00;;;;;;5054965;28;20021;-65
2021/07/07 02:32:46;;;;;;;5.20;3.70;;;22.80;76.70;;;;;;5052753;28;20060;-65
2021/07/07 02:35:18;;;;;;;5.13;3.92;;;22.80;76.50;;;;;;5054622;28;20602;-65
2021/07/07 02:37:44;;;;;;;4.07;3.55;;;22.80;76.40;;;;;;5055306;28;20116;-65
2021/07/07 02:40:11;;;;;;;4.18;3.72;;;22.80;77.00;;;;;;5054563;28;20107;-65
2021/07/07 02:42:37;;;;;;;4.10;3.70;;;22.80;76.60;;;;;;5054217;28;20465;-65
2021/07/07 02:45:06;;;;;;;4.63;3.92;;;22.80;76.30;;;;;;5054422;28;20028;-65
2021/07/07 02:47:32;;;;;;;4.07;3.67;;;22.80;75.90;;;;;;5053842;28;20115;-65
2021/07/07 02:49:57;;;;;;;4.38;3.83;;;22.80;76.00;;;;;;5054425;28;20489;-65
2021/07/07 02:52:23;;;;;;;4.68;4.07;;;22.80;75.70;;;;;;5053009;28;20124;-65
2021/07/07 02:54:49;;;;;;;7.13;3.97;;;22.80;75.60;;;;;;5052472;28;20068;-65
2021/07/07 02:57:16;;;;;;;4.32;3.92;;;22.80;75.50;;;;;;5054295;28;20049;-65
2021/07/07 02:59:42;;;;;;;4.47;3.78;;;22.80;75.60;;;;;;5053943;28;20037;-65
2021/07/07 03:02:08;;;;;;;4.43;3.80;;;22.80;75.90;;;;;;5054178;28;20469;-65
2021/07/07 03:04:34;;;;;;;5.15;3.75;;;22.80;75.80;;;;;;5051834;28;20021;-65
2021/07/07 03:07:00;;;;;;;6.55;4.00;;;22.80;75.30;;;;;;5053998;28;20063;-65
2021/07/07 03:09:26;;;;;;;4.57;4.18;;;22.90;75.40;;;;;;5054378;28;20469;-65
2021/07/07 03:11:52;;;;;;;4.50;3.95;;;22.90;75.50;;;;;;5054639;28;20066;-65
2021/07/07 03:14:17;;;;;;;4.75;3.63;;;22.90;75.50;;;;;;5054282;28;20049;-65
2021/07/07 03:16:43;;;;;;;4.50;3.85;;;22.90;75.50;;;;;;5053638;28;20689;-65
2021/07/07 03:19:08;;;;;;;4.55;3.78;;;22.90;75.50;;;;;;5054084;28;20146;-65
2021/07/07 03:21:34;;;;;;;4.82;3.78;;;22.80;75.10;;;;;;5052903;28;20445;-65
2021/07/07 03:24:00;;;;;;;4.13;3.67;;;22.80;74.90;;;;;;5054247;28;20017;-65
2021/07/07 03:26:25;;;;;;;4.90;3.80;;;22.80;74.80;;;;;;5053684;28;20436;-65
2021/07/07 03:28:51;;;;;;;4.45;3.72;;;22.90;74.60;;;;;;5054334;28;20036;-65
2021/07/07 03:31:17;;;;;;;4.32;3.92;;;22.90;75.00;;;;;;5053698;28;20087;-65
2021/07/07 03:33:42;;;;;;;4.45;3.97;;;23.10;75.30;;;;;;5051526;28;20025;-65
2021/07/07 03:36:08;;;;;;;4.15;3.67;;;23.20;75.20;;;;;;5053592;28;20067;-65
2021/07/07 03:38:34;;;;;;;4.60;3.88;;;23.40;74.70;;;;;;5051129;28;20021;-65
2021/07/07 03:41:00;;;;;;;4.03;3.63;;;23.70;74.80;;;;;;5053430;28;20025;-65
2021/07/07 03:43:25;;;;;;;4.47;3.72;;;24.10;74.80;;;;;;5051932;28;20023;-65
2021/07/07 03:45:51;;;;;;;4.70;3.90;;;24.50;74.10;;;;;;5053567;28;20435;-65
2021/07/07 03:48:17;;;;;;;4.13;3.60;;;25.00;73.40;;;;;;5051110;28;20071;-65
2021/07/07 03:50:42;;;;;;;3.90;3.25;;;25.80;72.30;;;;;;5051160;28;20032;-65
2021/07/07 03:53:08;;;;;;;3.55;3.25;;;26.50;70.10;;;;;;5053219;28;20027;-65
2021/07/07 03:55:35;;;;;;;4.97;3.42;;;27.20;68.00;;;;;;5050976;28;20021;-65
2021/07/07 03:58:01;;;;;;;4.72;3.22;;;28.00;65.90;;;;;;5051289;28;20025;-65
2021/07/07 04:00:28;;;;;;;4.80;3.42;;;28.80;64.00;;;;;;5052481;28;20530;-65
2021/07/07 04:02:55;;;;;;;3.50;3.20;;;29.70;61.80;;;;;;5051192;28;20021;-65
2021/07/07 04:05:21;;;;;;;3.63;3.33;;;30.50;59.90;;;;;;5052097;28;20047;-65
2021/07/07 04:07:47;;;;;;;3.30;3.00;;;31.30;58.20;;;;;;5051310;28;20468;-65
2021/07/07 04:10:14;;;;;;;3.40;2.75;;;32.00;57.00;;;;;;5052110;28;20028;-65
2021/07/07 04:12:42;;;;;;;4.32;3.67;;;32.60;55.30;;;;;;5052007;28;20472;-65
2021/07/07 04:15:09;;;;;;;3.30;3.00;;;33.20;53.90;;;;;;5051919;28;20033;-65
2021/07/07 04:17:35;;;;;;;4.03;3.15;;;33.80;53.00;;;;;;5050246;28;20108;-65
2021/07/07 04:20:01;;;;;;;3.45;2.92;;;34.30;52.10;;;;;;5053167;28;20492;-65
2021/07/07 04:22:27;;;;;;;3.13;2.85;;;34.70;50.40;;;;;;5052158;28;20376;-65
2021/07/07 04:24:53;;;;;;;3.40;3.10;;;35.20;50.10;;;;;;5051401;28;20041;-65
2021/07/07 04:27:18;;;;;;;2.85;2.60;;;35.50;49.10;;;;;;5052718;28;20013;-65
2021/07/07 04:29:44;;;;;;;2.78;2.55;;;35.70;48.40;;;;;;5052766;28;20073;-65
2021/07/07 04:32:10;;;;;;;2.80;2.60;;;35.60;47.90;;;;;;5052039;28;20379;-65
2021/07/07 04:34:36;;;;;;;3.25;2.90;;;35.10;47.70;;;;;;5052601;28;20044;-65
2021/07/07 04:37:01;;;;;;;3.22;2.72;;;34.40;48.00;;;;;;5053100;28;20394;-65
2021/07/07 04:39:27;;;;;;;3.05;2.75;;;33.50;48.50;;;;;;5052302;28;20027;-65
2021/07/07 04:41:53;;;;;;;3.38;3.08;;;32.80;49.20;;;;;;5051729;28;20025;-65
2021/07/07 04:44:18;;;;;;;3.30;2.92;;;32.10;50.20;;;;;;5051547;28;20013;-65
2021/07/07 04:46:44;;;;;;;3.53;3.22;;;31.50;51.30;;;;;;5052551;28;20028;-65
2021/07/07 04:49:10;;;;;;;4.60;3.17;;;31.30;51.70;;;;;;5052078;28;20037;-65
2021/07/07 04:51:35;;;;;;;5.25;3.47;;;31.00;52.00;;;;;;5052087;28;20021;-65
2021/07/07 04:54:02;;;;;;;3.35;3.05;;;30.70;52.50;;;;;;5049962;28;20124;-65
2021/07/07 04:56:27;;;;;;;4.32;3.10;;;30.30;52.50;;;;;;5050109;28;20036;-65
2021/07/07 04:58:53;;;;;;;3.40;3.10;;;29.90;53.80;;;;;;5049975;28;20025;-65
2021/07/07 05:01:19;;;;;;;3.65;3.35;;;29.50;54.00;;;;;;5052518;28;20021;-65
2021/07/07 05:03:44;;;;;;;3.00;2.70;;;29.10;54.20;;;;;;5052725;28;20020;-65
2021/07/07 05:06:10;;;;;;;3.20;2.90;;;28.70;54.80;;;;;;5052631;28;20066;-65
2021/07/07 05:08:36;;;;;;;3.60;3.28;;;28.30;55.50;;;;;;5052207;28;20346;-65
2021/07/07 05:11:02;;;;;;;3.75;3.17;;;28.00;56.00;;;;;;5053431;28;20029;-65
2021/07/07 05:13:28;;;;;;;3.88;3.40;;;27.80;56.70;;;;;;5052472;28;20021;-65
2021/07/07 05:15:54;;;;;;;3.97;3.03;;;27.50;57.30;;;;;;5051848;28;20021;-65
2021/07/07 05:18:20;;;;;;;3.30;3.00;;;27.30;58.10;;;;;;5050937;28;20550;-65
2021/07/07 05:20:47;;;;;;;3.45;2.83;;;27.10;58.40;;;;;;5051494;28;20028;-65
2021/07/07 05:23:13;;;;;;;3.50;3.13;;;26.90;58.90;;;;;;5052945;28;20025;-65
2021/07/07 05:25:40;;;;;;;5.03;2.95;;;26.90;59.50;;;;;;5049476;28;20049;-66
2021/07/07 05:28:06;;;;;;;3.05;2.83;;;26.80;59.70;;;;;;5051422;28;20087;-66
2021/07/07 05:30:32;;;;;;;3.47;2.78;;;26.80;60.10;;;;;;5049270;28;20416;-65
2021/07/07 05:33:00;;;;;;;3.50;3.20;;;26.70;59.70;;;;;;5045582;28;20028;-66
2021/07/07 05:35:26;;;;;;;3.58;2.97;;;26.60;60.20;;;;;;5050601;28;20047;-66
2021/07/07 05:37:52;;;;;;;4.57;3.10;;;26.50;60.40;;;;;;5045630;28;20021;-66
2021/07/07 05:40:19;;;;;;;3.47;3.17;;;26.50;60.40;;;;;;5048777;28;20084;-65
2021/07/07 05:42:50;;;;;;;3.92;3.10;;;26.40;60.20;;;;;;5046170;28;20036;-65
2021/07/07 05:45:16;;;;;;;4.05;2.78;;;26.30;60.90;;;;;;5036809;28;20031;-65
2021/07/07 05:47:42;;;;;;;3.30;2.75;;;26.30;61.10;;;;;;5034920;28;20017;-65
2021/07/07 05:50:07;;;;;;;3.70;2.80;;;26.30;61.10;;;;;;5033676;28;20029;-65
2021/07/07 05:52:33;;;;;;;3.03;2.78;;;26.30;61.60;;;;;;5040618;28;20055;-65
2021/07/07 05:54:59;;;;;;;3.15;2.67;;;26.30;61.80;;;;;;5036971;28;20033;-65
2021/07/07 05:57:36;;;;;;;3.40;3.10;;;26.30;61.00;;;;;;5041888;28;20408;-65
2021/07/07 06:00:11;;;;;;;5.47;3.42;;;26.30;61.20;;;;;;5044335;28;20543;-66
2021/07/07 06:02:38;;;;;;;4.38;3.00;;;26.30;61.50;;;;;;5042234;28;20033;-65
2021/07/07 06:05:06;;;;;;;3.20;2.90;;;26.30;61.90;;;;;;5042718;28;20032;-65
2021/07/07 06:07:32;;;;;;;3.20;2.90;;;26.30;61.70;;;;;;5038569;28;20027;-65
2021/07/07 06:09:58;;;;;;;3.72;3.15;;;26.30;61.70;;;;;;5043994;28;20021;-65
2021/07/07 06:12:24;;;;;;;4.60;3.35;;;26.40;61.60;;;;;;5042369;28;20511;-65
2021/07/07 06:14:50;;;;;;;3.53;3.13;;;26.40;61.70;;;;;;5039445;28;20118;-65
2021/07/07 06:17:15;;;;;;;3.35;2.90;;;26.40;61.60;;;;;;5038968;28;20033;-65
2021/07/07 06:19:41;;;;;;;3.42;2.90;;;26.40;61.60;;;;;;5040938;28;20110;-65
2021/07/07 06:22:07;;;;;;;3.60;3.15;;;26.40;61.80;;;;;;5038334;28;20029;-65
2021/07/07 06:24:32;;;;;;;3.90;3.20;;;26.40;61.80;;;;;;5039871;28;20639;-65
2021/07/07 06:26:58;;;;;;;3.63;3.00;;;26.40;61.90;;;;;;5038423;28;20697;-65
2021/07/07 06:29:24;;;;;;;3.78;3.17;;;26.30;61.60;;;;;;5035767;28;20032;-65
2021/07/07 06:31:49;;;;;;;3.13;2.78;;;26.30;61.50;;;;;;5036180;28;20565;-64
2021/07/07 06:34:15;;;;;;;6.80;3.17;;;26.30;61.70;;;;;;5038295;28;20024;-65
2021/07/07 06:36:40;;;;;;;3.58;3.03;;;26.20;61.80;;;;;;5042028;28;20120;-64
2021/07/07 06:39:06;;;;;;;3.47;2.92;;;26.30;61.50;;;;;;5035982;28;20037;-64
2021/07/07 06:41:32;;;;;;;3.72;2.88;;;26.30;61.60;;;;;;5038379;28;21286;-64
2021/07/07 06:43:59;;;;;;;3.63;2.80;;;26.30;61.50;;;;;;5037735;28;20033;-65
2021/07/07 06:46:24;;;;;;;3.67;3.22;;;26.30;61.50;;;;;;5041096;28;20061;-65
2021/07/07 06:48:50;;;;;;;3.72;3.15;;;26.30;61.40;;;;;;5041233;28;20104;-65
2021/07/07 06:51:16;;;;;;;3.25;2.95;;;26.30;61.30;;;;;;5037305;28;20099;-65
2021/07/07 06:53:42;;;;;;;4.88;2.92;;;26.20;61.90;;;;;;5035792;28;20024;-65
2021/07/07 06:56:08;;;;;;;4.22;3.42;;;26.30;61.80;;;;;;5028631;28;20065;-65
2021/07/07 06:58:34;;;;;;;3.90;3.05;;;26.20;61.60;;;;;;5034500;28;20039;-65
2021/07/07 07:00:59;;;;;;;3.88;3.17;;;26.30;62.20;;;;;;5034987;28;20029;-65
2021/07/07 07:03:25;;;;;;;3.38;2.97;;;26.20;62.30;;;;;;5036252;28;20092;-63
2021/07/07 07:05:51;;;;;;;5.25;3.13;;;26.30;62.50;;;;;;5035781;28;20033;-63
2021/07/07 07:08:18;;;;;;;4.10;3.17;;;26.30;62.70;;;;;;5035930;28;21608;-64
2021/07/07 07:10:44;;;;;;;3.15;2.85;;;26.40;62.70;;;;;;5032782;28;20030;-64
2021/07/07 07:13:11;;;;;;;3.20;2.83;;;26.30;62.30;;;;;;5037675;28;20112;-65
2021/07/07 07:15:36;;;;;;;3.67;2.92;;;26.30;62.40;;;;;;5037985;28;20485;-64
2021/07/07 07:18:02;;;;;;;3.30;2.90;;;26.30;62.10;;;;;;5035129;28;20028;-65
2021/07/07 07:20:29;;;;;;;4.40;3.03;;;26.20;62.30;;;;;;5034489;28;20058;-65
2021/07/07 07:22:57;;;;;;;3.20;2.90;;;26.20;61.90;;;;;;5036257;28;20028;-64
2021/07/07 07:25:23;;;;;;;2.97;2.72;;;26.10;61.90;;;;;;5035753;28;20145;-65
2021/07/07 07:27:49;;;;;;;3.00;2.70;;;26.10;61.80;;;;;;5034374;28;20412;-64
2021/07/07 07:30:15;;;;;;;3.42;2.70;;;26.00;62.10;;;;;;5030065;28;20037;-64
2021/07/07 07:32:40;;;;;;;3.13;2.70;;;26.00;61.90;;;;;;5034236;28;20091;-64
2021/07/07 07:35:06;;;;;;;4.70;2.90;;;26.00;61.60;;;;;;5030424;28;20065;-64
2021/07/07 07:38:01;;;;;;;5.10;2.90;;;25.90;61.50;;;;;;5035872;28;20029;-64
2021/07/07 07:40:36;;;;;;;8.10;3.20;;;25.90;61.50;;;;;;5036925;28;20737;-64
2021/07/07 07:43:04;;;;;;;2.85;2.60;;;25.90;61.70;;;;;;5023722;28;20021;-64
2021/07/07 07:45:30;;;;;;;4.80;3.50;;;25.90;61.70;;;;;;5029909;28;20078;-63
2021/07/07 07:47:56;;;;;;;3.88;2.92;;;25.90;61.50;;;;;;5031388;28;20025;-64
2021/07/07 07:50:22;;;;;;;3.47;2.60;;;25.90;61.40;;;;;;5032747;28;20516;-65
2021/07/07 07:52:49;;;;;;;2.92;2.65;;;25.90;61.70;;;;;;5028007;28;20040;-64
2021/07/07 07:55:15;;;;;;;3.53;2.90;;;25.90;61.30;;;;;;5025532;28;20039;-64
2021/07/07 07:57:41;;;;;;;3.05;2.70;;;25.90;61.00;;;;;;5029113;28;20029;-65
2021/07/07 08:00:13;;;;;;;3.65;2.47;;;25.90;61.00;;;;;;5028773;28;20044;-64
2021/07/07 08:02:39;;;;;;;3.90;2.75;;;25.80;60.70;;;;;;5032515;28;20112;-65
2021/07/07 08:05:06;;;;;;;3.35;3.05;;;25.80;60.70;;;;;;5029765;28;20017;-65
2021/07/07 08:07:32;;;;;;;5.15;3.30;;;25.80;60.30;;;;;;5031568;28;20426;-64
2021/07/07 08:09:58;;;;;;;4.57;2.90;;;25.80;60.40;;;;;;5027725;28;20044;-63
2021/07/07 08:12:24;;;;;;;7.10;3.03;;;25.80;60.60;;;;;;5030178;28;20035;-64
2021/07/07 08:14:51;;;;;;;5.25;3.22;;;25.90;61.00;;;;;;5035168;28;20040;-63
2021/07/07 08:17:20;;;;;;;4.07;3.40;;;25.90;61.10;;;;;;5029873;28;20400;-65
2021/07/07 08:19:48;;;;;;;3.20;2.90;;;25.90;61.10;;;;;;5030959;28;21439;-65
2021/07/07 08:22:14;;;;;;;4.15;3.28;;;26.00;61.20;;;;;;5030221;28;20028;-63
2021/07/07 08:24:40;;;;;;;6.88;3.30;;;26.00;61.00;;;;;;5028514;28;20049;-63
2021/07/07 08:27:08;;;;;;;3.03;2.72;;;26.00;60.60;;;;;;5032285;28;20781;-63
2021/07/07 08:29:35;;;;;;;7.22;3.38;;;26.10;61.00;;;;;;5034269;28;20044;-65
2021/07/07 08:32:01;;;;;;;4.40;3.25;;;26.10;61.00;;;;;;5027092;28;20056;-64
2021/07/07 08:34:27;;;;;;;8.45;7.35;;;26.20;60.70;;;;;;5023139;28;21201;-64
2021/07/07 08:36:53;;;;;;;7.10;5.45;;;26.20;61.10;;;;;;5024941;28;20076;-64
2021/07/07 08:39:18;;;;;;;5.13;4.10;;;26.20;61.10;;;;;;5028168;28;20739;-63
2021/07/07 08:41:44;;;;;;;3.88;3.20;;;26.20;61.30;;;;;;5025327;28;20036;-64
2021/07/07 08:44:10;;;;;;;5.53;3.22;;;26.30;61.30;;;;;;5023437;28;20040;-63
2021/07/07 08:46:36;;;;;;;5.38;3.38;;;26.30;60.80;;;;;;5025007;28;20044;-63
2021/07/07 08:49:03;;;;;;;3.80;3.30;;;26.40;60.90;;;;;;5029632;28;20147;-63
2021/07/07 08:51:30;;;;;;;3.88;3.10;;;26.40;60.40;;;;;;5029313;28;20060;-64
2021/07/07 08:53:56;;;;;;;3.75;3.05;;;26.40;59.80;;;;;;5032572;28;20095;-64
2021/07/07 08:56:22;;;;;;;4.80;3.38;;;26.40;59.60;;;;;;5026211;28;20047;-64
2021/07/07 08:58:50;;;;;;;5.20;3.47;;;26.30;59.40;;;;;;5025503;28;21017;-66
2021/07/07 09:01:16;;;;;;;5.20;3.55;;;26.30;59.90;;;;;;5014479;28;20044;-65
2021/07/07 09:03:43;;;;;;;4.03;3.40;;;26.30;59.60;;;;;;5027496;28;21989;-65
2021/07/07 09:06:10;;;;;;;3.72;3.30;;;26.30;59.40;;;;;;5031522;28;20020;-65
2021/07/07 09:08:44;;;;;;;9.93;3.78;;;26.30;59.50;;;;;;5026053;28;20481;-64
2021/07/07 09:11:42;;;;;;;5.68;3.47;;;26.30;60.30;;;;;;5027576;28;20432;-64
2021/07/07 09:14:14;;;;;;;4.88;3.70;;;26.30;60.20;;;;;;5031844;28;20527;-65
2021/07/07 09:16:50;;;;;;;3.92;3.53;;;26.40;60.20;;;;;;5035443;28;20033;-65
2021/07/07 09:19:21;;;;;;;4.03;3.10;;;26.30;60.00;;;;;;5028542;28;20549;-64
2021/07/07 09:21:53;;;;;;;3.53;3.20;;;26.40;60.20;;;;;;5020576;28;20143;-64
2021/07/07 09:24:21;;;;;;;3.85;3.28;;;26.40;60.30;;;;;;5026283;28;20029;-64
2021/07/07 09:27:01;;;;;;;3.85;3.22;;;26.40;60.20;;;;;;5027149;28;20126;-65
2021/07/07 09:29:37;;;;;;;5.00;3.10;;;26.40;60.90;;;;;;5028685;28;20090;-65
2021/07/07 09:32:28;;;;;;;3.63;3.33;;;26.50;60.50;;;;;;5024894;28;20044;-64
2021/07/07 09:34:59;;;;;;;5.05;3.50;;;26.50;60.30;;;;;;5029081;28;20032;-64
2021/07/07 09:37:42;;;;;;;3.67;3.30;;;26.60;60.10;;;;;;5026226;28;20507;-65
2021/07/07 09:40:10;;;;;;;4.60;3.65;;;26.60;60.00;;;;;;5029598;28;20039;-65
2021/07/07 09:42:38;;;;;;;4.80;3.42;;;26.60;60.40;;;;;;5031585;28;20768;-65
2021/07/07 09:45:06;;;;;;;4.40;3.30;;;26.60;60.10;;;;;;5029820;28;20031;-64
2021/07/07 09:47:32;;;;;;;5.55;3.47;;;26.60;60.50;;;;;;5030084;28;20038;-64
2021/07/07 09:49:59;;;;;;;4.93;3.80;;;26.70;60.60;;;;;;5027550;28;20036;-64
2021/07/07 09:52:26;;;;;;;5.05;3.75;;;26.70;60.40;;;;;;5030703;28;20116;-65
2021/07/07 09:54:53;;;;;;;4.05;3.30;;;26.60;60.70;;;;;;5028924;28;20091;-64
2021/07/07 09:57:20;;;;;;;4.82;3.72;;;26.60;60.50;;;;;;5028436;28;20037;-64
2021/07/07 09:59:47;;;;;;;3.90;3.30;;;26.50;61.10;;;;;;5037629;28;20253;-64
2021/07/07 10:02:13;;;;;;;3.47;3.17;;;26.50;60.90;;;;;;5029754;28;20033;-65
2021/07/07 10:04:42;;;;;;;4.13;3.40;;;26.50;61.30;;;;;;5025649;28;20071;-65
2021/07/07 10:07:08;;;;;;;3.58;3.28;;;26.40;61.50;;;;;;5025344;28;20036;-64
2021/07/07 10:09:37;;;;;;;5.13;3.95;;;26.40;61.50;;;;;;5024723;28;20794;-65
2021/07/07 10:12:04;;;;;;;5.05;4.10;;;26.40;61.90;;;;;;5027274;28;20048;-65
2021/07/07 10:14:30;;;;;;;3.70;3.20;;;26.40;62.20;;;;;;5028957;28;20074;-65
2021/07/07 10:16:55;;;;;;;4.63;3.80;;;26.50;62.20;;;;;;5035460;28;20064;-65
2021/07/07 10:19:22;;;;;;;5.53;3.35;;;26.50;62.20;;;;;;5032317;28;20132;-65
2021/07/07 10:21:49;;;;;;;3.80;3.08;;;26.50;62.20;;;;;;5029365;28;20548;-65
2021/07/07 10:24:17;;;;;;;3.85;3.38;;;26.50;62.10;;;;;;5036963;28;20025;-65
2021/07/07 10:26:44;;;;;;;3.35;2.55;;;26.50;61.70;;;;;;5034071;28;20049;-65
2021/07/07 10:29:12;;;;;;;3.53;2.85;;;26.50;61.40;;;;;;5032614;28;20061;-65
2021/07/07 10:31:50;;;;;;;2.80;2.58;;;26.50;60.60;;;;;;5038859;28;20481;-65
2021/07/07 10:34:17;;;;;;;3.33;2.72;;;26.50;60.60;;;;;;5037566;28;20377;-65
2021/07/07 10:36:43;;;;;;;3.33;2.80;;;26.50;60.00;;;;;;5042668;28;20029;-65
2021/07/07 10:39:11;;;;;;;2.95;2.65;;;26.50;59.40;;;;;;5034448;28;20070;-65
2021/07/07 10:41:43;;;;;;;3.53;2.75;;;26.50;59.80;;;;;;5030209;28;20410;-65
2021/07/07 10:44:10;;;;;;;3.45;2.85;;;26.50;59.90;;;;;;5034965;28;20768;-65
2021/07/07 10:46:57;;;;;;;2.90;2.58;;;26.50;59.80;;;;;;5039564;28;20028;-65
2021/07/07 10:49:29;;;;;;;2.85;2.47;;;26.50;59.70;;;;;;5036359;28;20036;-65
2021/07/07 10:51:57;;;;;;;5.85;2.70;;;26.50;59.20;;;;;;5036347;28;20859;-65
2021/07/07 10:54:30;;;;;;;5.90;2.58;;;26.60;58.90;;;;;;5034188;28;20640;-66
2021/07/07 10:56:57;;;;;;;3.10;2.80;;;26.60;58.90;;;;;;5029962;28;20041;-65
2021/07/07 10:59:31;;;;;;;4.82;2.92;;;26.50;59.10;;;;;;5033827;28;20040;-65
2021/07/07 11:02:17;;;;;;;2.45;2.25;;;26.60;59.60;;;;;;5032699;28;20107;-66
2021/07/07 11:04:47;;;;;;;3.05;2.40;;;26.60;59.00;;;;;;5035301;28;20091;-66
2021/07/07 11:07:31;;;;;;;4.07;2.70;;;26.60;59.20;;;;;;5029336;28;23044;-65
2021/07/07 11:10:05;;;;;;;4.03;2.67;;;26.60;59.50;;;;;;5031147;28;20033;-64
2021/07/07 11:12:37;;;;;;;5.00;2.65;;;26.60;59.00;;;;;;5028591;28;20029;-65
2021/07/07 11:15:16;;;;;;;3.10;2.80;;;26.60;59.00;;;;;;5029244;28;20033;-64
2021/07/07 11:17:46;;;;;;;4.03;2.80;;;26.60;59.00;;;;;;5035690;28;20029;-65
2021/07/07 11:20:17;;;;;;;4.37;2.40;;;26.50;59.30;;;;;;5029380;28;20021;-64
2021/07/07 11:22:46;;;;;;;3.88;2.72;;;26.60;59.30;;;;;;5034100;28;20296;-65
2021/07/07 11:25:14;;;;;;;3.60;3.08;;;26.50;59.40;;;;;;5031097;28;20052;-64
2021/07/07 11:27:40;;;;;;;3.08;2.67;;;26.60;59.20;;;;;;5035914;28;20029;-64
2021/07/07 11:30:08;;;;;;;2.83;2.40;;;26.60;59.30;;;;;;5031430;28;20051;-64
2021/07/07 11:32:36;;;;;;;3.00;2.55;;;26.60;59.30;;;;;;5027114;28;20047;-65
2021/07/07 11:35:09;;;;;;;2.53;2.33;;;26.60;58.90;;;;;;5029234;28;20504;-65
2021/07/07 11:37:35;;;;;;;3.33;2.60;;;26.70;58.70;;;;;;5029224;28;20641;-64
2021/07/07 11:40:05;;;;;;;3.80;2.60;;;26.70;58.90;;;;;;5034758;28;20078;-64
2021/07/07 11:42:31;;;;;;;4.37;2.80;;;26.70;58.00;;;;;;5028368;28;20051;-64
2021/07/07 11:44:57;;;;;;;4.22;2.90;;;26.70;58.30;;;;;;5023992;28;20172;-64
2021/07/07 11:47:35;;;;;;;4.82;2.92;;;26.70;58.20;;;;;;5027919;28;20411;-64
2021/07/07 11:50:07;;;;;;;2.75;2.47;;;26.80;58.50;;;;;;5038457;28;20037;-66
2021/07/07 11:52:33;;;;;;;3.80;2.70;;;26.80;58.60;;;;;;5027827;28;20040;-64
2021/07/07 11:55:00;;;;;;;2.50;2.30;;;26.80;58.70;;;;;;5028277;28;20777;-65
2021/07/07 11:57:27;;;;;;;3.10;2.70;;;26.80;58.50;;;;;;5032176;28;20827;-64
2021/07/07 11:59:53;;;;;;;2.92;2.70;;;26.80;58.80;;;;;;5033508;28;20143;-65
2021/07/07 12:02:20;;;;;;;3.05;2.35;;;26.80;59.30;;;;;;5019677;28;20029;-65
2021/07/07 12:04:46;;;;;;;4.30;2.72;;;26.80;58.60;;;;;;5032384;28;20343;-66
2021/07/07 12:07:13;;;;;;;2.92;2.67;;;26.90;58.40;;;;;;5034507;28;20033;-65
2021/07/07 12:09:39;;;;;;;3.00;2.70;;;26.90;58.30;;;;;;5030498;28;20111;-66
2021/07/07 12:12:09;;;;;;;3.95;2.70;;;26.90;58.40;;;;;;5032217;28;20115;-65
2021/07/07 12:14:37;;;;;;;4.00;2.78;;;26.90;58.50;;;;;;5032238;28;20148;-65
2021/07/07 12:17:04;;;;;;;3.00;2.22;;;26.90;58.30;;;;;;5034108;28;20028;-64
2021/07/07 12:19:32;;;;;;;7.03;2.70;;;26.90;58.40;;;;;;5028953;28;20116;-65
2021/07/07 12:22:02;;;;;;;2.92;2.63;;;27.00;58.40;;;;;;5028718;28;20049;-66
2021/07/07 12:24:35;;;;;;;;;;;27.00;59.30;;;;;;5028953;28;20029;-64
2021/07/07 12:27:06;;;;;;;3.92;2.70;;;26.90;58.70;;;;;;5027615;28;20357;-64
2021/07/07 12:29:36;;;;;;;6.50;2.70;;;26.90;58.50;;;;;;5037850;28;20082;-65
2021/07/07 12:32:27;;;;;;;2.78;2.58;;;27.00;58.60;;;;;;5031944;28;20037;-66
2021/07/07 12:34:59;;;;;;;3.42;2.70;;;27.00;58.60;;;;;;5032584;28;20417;-65
2021/07/07 12:37:25;;;;;;;4.05;2.60;;;27.00;58.50;;;;;;5030365;28;20682;-65
2021/07/07 12:39:53;;;;;;;2.83;2.60;;;27.10;58.60;;;;;;5035573;28;20083;-64
2021/07/07 12:42:27;;;;;;;2.67;2.42;;;27.10;58.90;;;;;;5031877;28;20040;-64
2021/07/07 12:45:10;;;;;;;2.65;2.42;;;27.20;58.90;;;;;;5029716;28;20035;-65
2021/07/07 12:47:36;;;;;;;3.80;2.50;;;27.20;58.40;;;;;;5034932;28;20029;-64
2021/07/07 12:50:17;;;;;;;3.28;2.47;;;27.20;58.20;;;;;;5031777;28;20052;-64